Portada
METAR-TAF:

METAR-TAF

Aeropuertos :

Lusaka, Zambia

Aeropuerto Internacional de Lusaka

latitud: 15-19-51S, longitud: 028-27-09E, altitud: 1152 m

Observación

El informe se hizo hace 15 minutos, a las 13:00 UTC
Viento 4 kt del este
Temperatura 37°C
Humedad 8%
Presión 1014 hPa
Visibilidad 10 km o más
sin nubes por debajo de 1500 m y sin presencia de cumulonimbus.

METAR: FLKK 171300Z 09004KT CAVOK 37/M03 Q1014

Hora: 15:15 (13:15 UTC)

Pronóstico

El informe se hizo hace 33 horas y 15 minutos, a las 04:00 UTC
Pronóstico válido del 16 a las 06 UTC al 17 a las 12 UTC
Viento 10 kt del este-noreste
Visibilidad 10 km o más
sin nubes por debajo de 1500 m y sin presencia de cumulonimbus.

TAF: FLKK 160400Z 1606/1712 07010KT CAVOK

Observaciones y pronósticos meteorológicos de más de 4000 aeropuertos (mensajes METAR y TAF).

Los puntos amarillos y rojos representan las estaciones disponibles.

Ponga el ratón en el punto deseado para ver el nombre de la estación.

Haga clic para ver las observaciones y los pronósticos meteorológicos.

Para cambiar el mapa : haga clic en los botones verdes con una cruz de color negro para hacer un zoom, en el botón verde con un guión para alejar o en las flechas verdes para mapas adyacentes.


METAR-TAF: